createdAt,value
2017-04-08T00:00:27.757Z,22.82
2017-04-08T00:01:27.153Z,18.77
2017-04-08T00:02:26.484Z,16.58
2017-04-08T00:03:25.824Z,17.80
2017-04-08T00:04:25.269Z,17.28
2017-04-08T00:05:24.595Z,20.53
2017-04-08T00:06:23.991Z,21.40
2017-04-08T00:07:23.418Z,20.48
2017-04-08T00:08:22.820Z,18.82
2017-04-08T00:09:22.219Z,18.63
2017-04-08T00:10:21.667Z,20.32
2017-04-08T00:11:20.986Z,26.33
2017-04-08T00:12:20.343Z,17.68
2017-04-08T00:13:19.703Z,19.80
2017-04-08T00:14:19.017Z,19.93
2017-04-08T00:15:18.354Z,20.32
2017-04-08T00:16:17.692Z,24.08
2017-04-08T00:17:17.871Z,23.70
2017-04-08T00:18:17.232Z,19.92
2017-04-08T00:19:16.609Z,23.77
2017-04-08T00:20:15.991Z,24.33
2017-04-08T00:21:15.303Z,21.47
2017-04-08T00:22:14.712Z,21.45
2017-04-08T00:23:14.087Z,24.27
2017-04-08T00:24:13.389Z,19.82
2017-04-08T00:25:12.818Z,22.27
2017-04-08T00:26:12.888Z,25.13
2017-04-08T00:27:12.253Z,25.15
2017-04-08T00:28:11.569Z,24.12
2017-04-08T00:29:10.917Z,23.95
2017-04-08T00:30:10.327Z,26.28
2017-04-08T00:31:09.620Z,30.17
2017-04-08T00:32:09.361Z,23.40
2017-04-08T00:33:08.653Z,30.40
2017-04-08T00:34:08.003Z,32.70
2017-04-08T00:35:07.382Z,29.58
2017-04-08T00:36:06.726Z,27.32
2017-04-08T00:37:06.072Z,20.92
2017-04-08T00:38:05.393Z,28.58
2017-04-08T00:39:05.579Z,23.23
2017-04-08T00:40:04.979Z,22.77
2017-04-08T00:41:05.573Z,28.10
2017-04-08T00:42:05.651Z,23.67
2017-04-08T00:43:04.976Z,25.35
2017-04-08T00:44:04.284Z,25.20
2017-04-08T00:45:03.994Z,27.23
2017-04-08T00:46:03.480Z,25.87
2017-04-08T00:47:02.928Z,28.10
2017-04-08T00:48:02.264Z,24.17
2017-04-08T00:49:01.592Z,23.52
2017-04-08T00:50:00.937Z,24.08
2017-04-08T00:51:00.323Z,23.23
2017-04-08T00:52:00.394Z,23.07
2017-04-08T00:52:59.714Z,25.67
2017-04-08T00:53:59.007Z,20.08
2017-04-08T00:54:58.375Z,20.12
2017-04-08T00:55:57.696Z,20.63
2017-04-08T00:56:57.010Z,19.67
2017-04-08T00:57:56.384Z,18.25
2017-04-08T00:58:55.754Z,17.92
2017-04-08T00:59:55.804Z,20.63
2017-04-08T01:02:05.133Z,21.30
2017-04-08T01:03:04.487Z,21.65
2017-04-08T01:04:03.875Z,20.85
2017-04-08T01:05:03.968Z,27.60
2017-04-08T01:06:03.329Z,20.72
2017-04-08T01:07:03.207Z,24.05
2017-04-08T01:08:02.451Z,18.22
2017-04-08T01:09:02.575Z,24.55
2017-04-08T01:10:02.714Z,21.53
2017-04-08T01:11:02.036Z,19.10
2017-04-08T01:12:01.380Z,24.57
2017-04-08T01:13:00.674Z,21.45
2017-04-08T01:13:59.993Z,22.78
2017-04-08T01:14:59.317Z,28.27
2017-04-08T01:15:58.655Z,21.83
2017-04-08T01:16:58.027Z,23.05
2017-04-08T01:17:57.448Z,21.22
2017-04-08T01:18:56.764Z,25.63
2017-04-08T01:19:56.118Z,23.83
2017-04-08T01:20:55.393Z,21.20
2017-04-08T01:21:54.724Z,24.25
2017-04-08T01:22:53.987Z,27.18
2017-04-08T01:23:53.263Z,23.53
2017-04-08T01:24:52.653Z,21.80
2017-04-08T01:25:53.011Z,25.07
2017-04-08T01:26:52.460Z,28.80
2017-04-08T01:27:52.508Z,23.67
2017-04-08T01:28:51.840Z,26.22
2017-04-08T01:29:51.817Z,22.68
2017-04-08T01:30:51.171Z,28.30
2017-04-08T01:31:50.843Z,27.23
2017-04-08T01:32:50.393Z,26.30
2017-04-08T01:33:49.737Z,25.78
2017-04-08T01:34:49.820Z,23.88
2017-04-08T01:35:49.212Z,27.87
2017-04-08T01:36:48.575Z,25.83
2017-04-08T01:37:47.959Z,28.67
2017-04-08T01:38:47.272Z,25.83
2017-04-08T01:39:46.586Z,27.87
2017-04-08T01:40:45.926Z,27.92
2017-04-08T01:41:45.301Z,27.82
2017-04-08T01:42:44.609Z,30.13
2017-04-08T01:43:43.996Z,27.68
2017-04-08T01:44:43.287Z,28.58
2017-04-08T01:45:42.587Z,27.23
2017-04-08T01:46:41.942Z,27.67
2017-04-08T01:47:44.535Z,30.18
2017-04-08T01:48:43.825Z,32.55
2017-04-08T01:49:43.511Z,33.95
2017-04-08T01:50:42.794Z,33.98
2017-04-08T01:51:42.165Z,34.67
2017-04-08T01:52:42.194Z,32.68
2017-04-08T01:53:42.279Z,34.57
2017-04-08T01:54:42.346Z,33.07
2017-04-08T01:55:41.834Z,31.33
2017-04-08T01:56:41.187Z,36.72
2017-04-08T01:57:40.511Z,34.15
2017-04-08T01:58:40.032Z,31.07
2017-04-08T01:59:39.377Z,27.53
2017-04-08T02:00:38.759Z,32.45
2017-04-08T02:01:39.174Z,26.00
2017-04-08T02:02:38.464Z,35.12
2017-04-08T02:03:38.545Z,32.57
2017-04-08T02:04:37.880Z,28.25
2017-04-08T02:05:40.512Z,29.32
2017-04-08T02:06:40.118Z,29.78
2017-04-08T02:07:40.215Z,28.47
2017-04-08T02:08:39.839Z,26.72
2017-04-08T02:09:39.952Z,21.60
2017-04-08T02:10:39.261Z,24.80
2017-04-08T02:11:38.558Z,28.22
2017-04-08T02:12:38.040Z,23.98
2017-04-08T02:13:37.409Z,25.83
2017-04-08T02:14:37.842Z,22.33
2017-04-08T02:15:37.201Z,23.40
2017-04-08T02:16:36.506Z,25.95
2017-04-08T02:17:35.899Z,23.80
2017-04-08T02:18:36.004Z,28.48
2017-04-08T02:19:35.418Z,22.40
2017-04-08T02:20:34.901Z,23.35
2017-04-08T02:21:35.555Z,25.70
2017-04-08T02:22:34.927Z,25.62
2017-04-08T02:23:34.306Z,27.95
2017-04-08T02:24:34.398Z,25.73
2017-04-08T02:25:34.422Z,22.43
2017-04-08T02:26:33.753Z,30.40
2017-04-08T02:27:33.085Z,25.10
2017-04-08T02:28:32.702Z,22.03
2017-04-08T02:29:37.742Z,24.82
2017-04-08T02:30:37.080Z,24.92
2017-04-08T02:31:36.373Z,23.75
2017-04-08T02:32:35.740Z,24.85
2017-04-08T02:33:35.129Z,20.10
2017-04-08T02:34:34.460Z,19.02
2017-04-08T02:35:35.031Z,20.72
2017-04-08T02:36:34.375Z,21.10
2017-04-08T02:37:34.479Z,21.98
2017-04-08T02:38:34.581Z,23.83
2017-04-08T02:39:37.389Z,21.55
2017-04-08T02:40:37.442Z,20.02
2017-04-08T02:41:36.776Z,19.73
2017-04-08T02:42:36.065Z,21.27
2017-04-08T02:43:36.423Z,17.65
2017-04-08T02:44:35.778Z,17.92
2017-04-08T02:45:36.192Z,15.93
2017-04-08T02:46:35.585Z,16.93
2017-04-08T02:47:38.064Z,21.12
2017-04-08T02:48:37.336Z,16.10
2017-04-08T02:49:37.375Z,18.43
2017-04-08T02:50:36.750Z,18.72
2017-04-08T02:51:36.448Z,14.63
2017-04-08T02:52:36.523Z,12.77
2017-04-08T02:53:35.833Z,20.05
2017-04-08T02:54:35.217Z,18.43
2017-04-08T02:55:38.340Z,14.32
2017-04-08T02:56:37.635Z,13.42
2017-04-08T02:57:37.371Z,15.57
2017-04-08T02:58:36.689Z,12.82
2017-04-08T02:59:36.202Z,13.80
2017-04-08T03:00:35.573Z,13.18
2017-04-08T03:01:35.638Z,14.92
2017-04-08T03:02:35.015Z,16.38
2017-04-08T03:03:39.629Z,11.38
2017-04-08T03:04:38.948Z,15.93
2017-04-08T03:05:38.316Z,15.48
2017-04-08T03:06:37.621Z,12.80
2017-04-08T03:07:36.919Z,14.53
2017-04-08T03:08:36.241Z,12.37
2017-04-08T03:09:36.392Z,10.12
2017-04-08T03:10:35.707Z,15.35
2017-04-08T03:11:34.996Z,10.03
2017-04-08T03:12:34.293Z,13.35
2017-04-08T03:13:33.616Z,11.63
2017-04-08T03:14:33.656Z,11.78
2017-04-08T03:15:32.984Z,13.02
2017-04-08T03:16:32.315Z,14.05
2017-04-08T03:17:31.647Z,11.15
2017-04-08T03:18:30.978Z,11.65
2017-04-08T03:19:31.499Z,10.78
2017-04-08T03:20:31.533Z,12.82
2017-04-08T03:21:30.831Z,10.83
2017-04-08T03:22:30.163Z,10.52
2017-04-08T03:23:29.510Z,13.47
2017-04-08T03:24:28.796Z,11.13
2017-04-08T03:25:28.327Z,10.80
2017-04-08T03:26:27.628Z,11.72
2017-04-08T03:27:26.929Z,12.43
2017-04-08T03:28:27.017Z,9.70
2017-04-08T03:29:26.309Z,11.80
2017-04-08T03:30:25.601Z,11.58
2017-04-08T03:31:24.853Z,10.83
2017-04-08T03:32:24.149Z,12.67
2017-04-08T03:33:23.474Z,10.95
2017-04-08T03:34:22.777Z,10.52
2017-04-08T03:35:22.760Z,11.97
2017-04-08T03:36:22.054Z,11.82
2017-04-08T03:37:21.379Z,10.98
2017-04-08T03:38:20.656Z,14.03
2017-04-08T03:39:19.948Z,13.62
2017-04-08T03:40:19.984Z,11.92
2017-04-08T03:41:19.271Z,10.40
2017-04-08T03:42:18.567Z,11.05
2017-04-08T03:43:17.848Z,9.52
2017-04-08T03:44:17.169Z,10.03
2017-04-08T03:45:16.505Z,11.30
2017-04-08T03:46:15.771Z,13.53
2017-04-08T03:47:15.277Z,9.55
2017-04-08T03:48:14.541Z,10.85
2017-04-08T03:49:14.726Z,10.47
2017-04-08T03:50:14.009Z,14.35
2017-04-08T03:51:13.304Z,12.25
2017-04-08T03:52:12.587Z,13.05
2017-04-08T03:53:11.865Z,12.03
2017-04-08T03:54:12.001Z,12.80
2017-04-08T03:55:11.243Z,14.52
2017-04-08T03:56:11.317Z,15.42
2017-04-08T03:57:10.618Z,11.55
2017-04-08T03:58:09.910Z,11.35
2017-04-08T03:59:09.258Z,11.28
2017-04-08T04:00:08.644Z,12.37
2017-04-08T04:01:07.906Z,13.20
2017-04-08T04:02:07.898Z,11.25
2017-04-08T04:03:07.382Z,13.93
2017-04-08T04:04:06.902Z,12.93
2017-04-08T04:05:06.187Z,12.97
2017-04-08T04:06:05.551Z,15.87
2017-04-08T04:07:04.846Z,11.65
2017-04-08T04:08:04.163Z,11.58
2017-04-08T04:09:03.966Z,13.10
2017-04-08T04:10:03.241Z,15.88
2017-04-08T04:11:02.646Z,13.50
2017-04-08T04:12:01.944Z,12.12
2017-04-08T04:13:01.959Z,15.45
2017-04-08T04:14:02.015Z,13.40
2017-04-08T04:15:01.327Z,15.02
2017-04-08T04:16:00.618Z,18.35
2017-04-08T04:16:59.968Z,14.37
2017-04-08T04:17:59.309Z,12.63
2017-04-08T04:18:58.999Z,12.35
2017-04-08T04:19:59.079Z,15.17
2017-04-08T04:20:58.374Z,15.78
2017-04-08T04:21:58.109Z,17.52
2017-04-08T04:22:57.405Z,17.87
2017-04-08T04:23:57.397Z,18.65
2017-04-08T04:24:56.677Z,15.57
2017-04-08T04:25:56.031Z,13.67
2017-04-08T04:26:55.329Z,19.05
2017-04-08T04:27:55.355Z,15.28
2017-04-08T04:28:54.716Z,14.25
2017-04-08T04:29:54.022Z,13.73
2017-04-08T04:30:53.344Z,13.43
2017-04-08T04:31:52.748Z,15.40
2017-04-08T04:32:52.299Z,16.45
2017-04-08T04:33:51.567Z,18.63
2017-04-08T04:34:50.906Z,16.40
2017-04-08T04:35:50.268Z,18.78
2017-04-08T04:36:49.564Z,16.00
2017-04-08T04:37:48.794Z,16.13
2017-04-08T04:38:48.045Z,18.00
2017-04-08T04:39:47.724Z,24.92
2017-04-08T04:40:47.216Z,17.37
2017-04-08T04:41:46.477Z,24.05
2017-04-08T04:42:46.627Z,17.03
2017-04-08T04:43:45.941Z,15.52
2017-04-08T04:44:45.294Z,21.97
2017-04-08T04:45:44.594Z,21.47
2017-04-08T04:46:44.345Z,21.93
2017-04-08T04:47:43.634Z,23.75
2017-04-08T04:48:43.289Z,15.30
2017-04-08T04:49:42.592Z,22.78
2017-04-08T04:50:41.928Z,20.72
2017-04-08T04:51:42.111Z,17.97
2017-04-08T04:52:41.370Z,21.03
2017-04-08T04:53:40.670Z,19.37
2017-04-08T04:54:39.996Z,18.02
2017-04-08T04:55:39.332Z,21.82
2017-04-08T04:56:38.708Z,22.80
2017-04-08T04:57:39.024Z,18.72
2017-04-08T04:58:38.263Z,19.58
2017-04-08T04:59:37.956Z,21.25
2017-04-08T05:00:37.257Z,21.28
2017-04-08T05:01:38.938Z,20.63
2017-04-08T05:02:38.956Z,18.95
2017-04-08T05:03:38.249Z,27.12
2017-04-08T05:04:37.899Z,21.30
2017-04-08T05:05:37.352Z,30.03
2017-04-08T05:06:36.734Z,25.47
2017-04-08T05:07:36.068Z,19.87
2017-04-08T05:08:35.350Z,29.22
2017-04-08T05:09:34.620Z,23.68
2017-04-08T05:10:33.974Z,20.58
2017-04-08T05:11:33.988Z,25.82
2017-04-08T05:12:34.062Z,23.75
2017-04-08T05:13:33.417Z,22.95
2017-04-08T05:14:32.676Z,21.37
2017-04-08T05:15:32.714Z,29.80
2017-04-08T05:16:32.157Z,25.60
2017-04-08T05:17:31.495Z,22.10
2017-04-08T05:18:30.891Z,23.32
2017-04-08T05:19:30.211Z,27.23
2017-04-08T05:20:29.507Z,26.47
2017-04-08T05:21:29.525Z,27.52
2017-04-08T05:22:28.793Z,21.45
2017-04-08T05:23:28.093Z,25.57
2017-04-08T05:24:27.366Z,27.00
2017-04-08T05:25:26.726Z,24.03
2017-04-08T05:26:26.044Z,21.58
2017-04-08T05:27:25.371Z,21.87
2017-04-08T05:28:24.710Z,26.70
2017-04-08T05:29:23.952Z,27.77
2017-04-08T05:30:23.398Z,22.12
2017-04-08T05:31:22.732Z,28.23
2017-04-08T05:32:22.014Z,27.33
2017-04-08T05:33:21.287Z,30.92
2017-04-08T05:34:21.849Z,21.27
2017-04-08T05:35:21.949Z,27.68
2017-04-08T05:36:22.020Z,26.18
2017-04-08T05:37:21.362Z,22.78
2017-04-08T05:38:21.352Z,32.88
2017-04-08T05:39:21.484Z,25.58
2017-04-08T05:40:21.852Z,26.53
2017-04-08T05:41:21.145Z,31.90
2017-04-08T05:42:20.434Z,26.65
2017-04-08T05:43:19.744Z,34.55
2017-04-08T05:44:19.339Z,36.50
2017-04-08T05:45:18.669Z,27.88
2017-04-08T05:46:18.027Z,21.77
2017-04-08T05:47:17.376Z,25.32
2017-04-08T05:48:16.745Z,27.67
2017-04-08T05:49:16.042Z,34.30
2017-04-08T05:50:15.354Z,33.15
2017-04-08T05:51:14.738Z,33.55
2017-04-08T05:52:14.054Z,31.25
2017-04-08T05:53:13.449Z,35.27
2017-04-08T05:54:12.731Z,27.28
2017-04-08T05:55:12.123Z,28.80
2017-04-08T05:56:11.424Z,26.30
2017-04-08T05:57:10.690Z,27.82
2017-04-08T05:58:09.991Z,34.12
2017-04-08T05:59:09.292Z,28.23
2017-04-08T06:00:08.667Z,27.68
2017-04-08T06:01:07.979Z,34.78
2017-04-08T06:02:07.355Z,24.65
2017-04-08T06:03:06.647Z,29.70
2017-04-08T06:04:05.987Z,32.28
2017-04-08T06:05:05.320Z,23.58
2017-04-08T06:06:04.629Z,24.82
2017-04-08T06:07:04.050Z,31.95
2017-04-08T06:08:04.115Z,27.95
2017-04-08T06:09:03.503Z,29.25
2017-04-08T06:10:03.540Z,30.67
2017-04-08T06:11:02.908Z,28.13
2017-04-08T06:12:02.216Z,25.22
2017-04-08T06:13:01.492Z,26.05
2017-04-08T06:14:00.803Z,25.87
2017-04-08T06:15:00.085Z,32.53
2017-04-08T06:15:59.398Z,23.97
2017-04-08T06:16:59.467Z,28.88
2017-04-08T06:17:58.754Z,30.63
2017-04-08T06:18:58.018Z,28.37
2017-04-08T06:19:57.289Z,28.77
2017-04-08T06:20:56.598Z,22.28
2017-04-08T06:21:55.873Z,27.78
2017-04-08T06:22:55.154Z,32.30
2017-04-08T06:23:55.193Z,28.28
2017-04-08T06:24:54.575Z,36.43
2017-04-08T06:25:53.902Z,27.28
2017-04-08T06:26:53.211Z,26.60
2017-04-08T06:27:53.283Z,30.25
2017-04-08T06:28:52.610Z,26.73
2017-04-08T06:29:51.882Z,34.38
2017-04-08T06:30:51.190Z,34.23
2017-04-08T06:31:51.463Z,25.35
2017-04-08T06:32:50.842Z,24.45
2017-04-08T06:33:50.091Z,31.17
2017-04-08T06:34:50.198Z,31.80
2017-04-08T06:35:50.216Z,28.38
2017-04-08T06:36:50.266Z,21.98
2017-04-08T06:37:49.593Z,22.42
2017-04-08T06:38:48.887Z,23.92
2017-04-08T06:39:48.558Z,24.27
2017-04-08T06:40:47.875Z,31.80
2017-04-08T06:41:47.178Z,24.38
2017-04-08T06:42:47.191Z,24.83
2017-04-08T06:43:47.245Z,20.90
2017-04-08T06:44:46.563Z,26.40
2017-04-08T06:45:45.882Z,27.45
2017-04-08T06:46:45.956Z,30.70
2017-04-08T06:47:45.268Z,21.45
2017-04-08T06:48:44.574Z,25.28
2017-04-08T06:49:43.885Z,24.32
2017-04-08T06:50:43.200Z,23.40
2017-04-08T06:51:42.515Z,21.08
2017-04-08T06:52:41.840Z,25.27
2017-04-08T06:53:41.152Z,26.17
2017-04-08T06:54:40.495Z,23.97
2017-04-08T06:55:39.858Z,27.53
2017-04-08T06:56:39.216Z,20.62
2017-04-08T06:57:38.534Z,27.10
2017-04-08T06:58:37.828Z,33.02
2017-04-08T06:59:37.161Z,17.65
2017-04-08T07:00:37.264Z,18.60
2017-04-08T07:01:37.326Z,23.72
2017-04-08T07:02:41.153Z,19.75
2017-04-08T07:03:40.623Z,20.48
2017-04-08T07:04:40.647Z,24.92
2017-04-08T07:05:39.995Z,23.62
2017-04-08T07:06:39.339Z,23.07
2017-04-08T07:07:38.664Z,17.43
2017-04-08T07:08:37.990Z,26.20
2017-04-08T07:09:37.308Z,26.92
2017-04-08T07:10:36.615Z,24.82
2017-04-08T07:11:36.686Z,20.35
2017-04-08T07:12:36.001Z,17.97
2017-04-08T07:13:35.291Z,20.43
2017-04-08T07:14:34.649Z,20.70
2017-04-08T07:15:33.936Z,17.62
2017-04-08T07:16:33.224Z,20.33
2017-04-08T07:17:33.249Z,20.68
2017-04-08T07:18:32.625Z,20.70
2017-04-08T07:19:32.069Z,18.13
2017-04-08T07:20:32.089Z,17.77
2017-04-08T07:21:31.444Z,15.98
2017-04-08T07:22:31.046Z,22.45
2017-04-08T07:23:30.435Z,18.88
2017-04-08T07:24:29.806Z,23.37
2017-04-08T07:25:36.752Z,14.40
2017-04-08T07:26:36.046Z,15.40
2017-04-08T07:27:35.660Z,20.45
2017-04-08T07:28:35.814Z,24.98
2017-04-08T07:29:35.860Z,18.68
2017-04-08T07:30:35.172Z,19.67
2017-04-08T07:31:35.297Z,22.08
2017-04-08T07:32:34.613Z,17.72
2017-04-08T07:33:33.849Z,15.02
2017-04-08T07:34:33.161Z,17.63
2017-04-08T07:35:32.435Z,15.17
2017-04-08T07:36:31.691Z,14.63
2017-04-08T07:37:31.809Z,21.85
2017-04-08T07:38:31.337Z,24.23
2017-04-08T07:39:30.605Z,15.12
2017-04-08T07:40:29.948Z,14.10
2017-04-08T07:41:29.245Z,13.68
2017-04-08T07:42:29.527Z,16.43
2017-04-08T07:43:28.797Z,17.87
2017-04-08T07:44:28.049Z,16.12
2017-04-08T07:45:27.329Z,15.45
2017-04-08T07:46:27.380Z,17.37
2017-04-08T07:47:26.647Z,13.22
2017-04-08T07:48:26.040Z,12.58
2017-04-08T07:49:25.594Z,16.78
2017-04-08T07:50:24.879Z,19.15
2017-04-08T07:51:24.580Z,14.87
2017-04-08T07:52:24.356Z,14.42
2017-04-08T07:53:23.934Z,14.52
2017-04-08T07:54:23.224Z,18.07
2017-04-08T07:55:22.527Z,18.92
2017-04-08T07:56:21.793Z,11.53
2017-04-08T07:57:21.140Z,18.85
2017-04-08T07:58:20.450Z,14.48
2017-04-08T07:59:20.498Z,15.65
2017-04-08T08:00:19.869Z,15.77
2017-04-08T08:01:21.520Z,17.35
2017-04-08T08:03:29.951Z,21.83
2017-04-08T08:04:29.249Z,16.10
2017-04-08T08:05:28.522Z,14.43
2017-04-08T08:06:27.827Z,22.08
2017-04-08T08:07:27.168Z,20.07
2017-04-08T08:08:27.248Z,19.23
2017-04-08T08:09:26.676Z,18.90
2017-04-08T08:10:26.192Z,19.97
2017-04-08T08:11:25.727Z,19.28
2017-04-08T08:12:25.210Z,17.00
2017-04-08T08:13:24.607Z,19.15
2017-04-08T08:14:24.514Z,14.60
2017-04-08T08:15:24.105Z,19.83
2017-04-08T08:16:23.496Z,24.58
2017-04-08T08:17:22.883Z,15.57
2017-04-08T08:18:22.288Z,22.00
2017-04-08T08:19:21.704Z,16.82
2017-04-08T08:20:21.212Z,18.65
2017-04-08T08:21:21.401Z,15.70
2017-04-08T08:22:21.091Z,14.28
2017-04-08T08:23:20.464Z,18.85
2017-04-08T08:24:20.106Z,18.00
2017-04-08T08:25:20.228Z,16.08
2017-04-08T08:26:19.595Z,15.37
2017-04-08T08:27:19.692Z,13.00
2017-04-08T08:28:19.106Z,12.20
2017-04-08T08:29:19.287Z,13.45
2017-04-08T08:30:18.745Z,14.82
2017-04-08T08:31:18.064Z,13.15
2017-04-08T08:32:17.465Z,10.25
2017-04-08T08:33:17.277Z,14.03
2017-04-08T08:34:16.641Z,12.97
2017-04-08T08:35:16.049Z,18.10
2017-04-08T08:36:15.373Z,10.88
2017-04-08T08:37:14.818Z,13.30
2017-04-08T08:38:14.138Z,16.22
2017-04-08T08:39:13.493Z,12.50
2017-04-08T08:40:12.873Z,14.40
2017-04-08T08:41:12.226Z,14.92
2017-04-08T08:42:11.836Z,19.72
2017-04-08T08:43:11.289Z,11.52
2017-04-08T08:44:11.031Z,12.48
2017-04-08T08:45:10.365Z,14.07
2017-04-08T08:46:09.692Z,15.18
2017-04-08T08:47:09.016Z,11.27
2017-04-08T08:48:08.424Z,16.85
2017-04-08T08:49:08.416Z,10.17
2017-04-08T08:50:07.775Z,9.07
2017-04-08T08:51:07.232Z,9.53
2017-04-08T08:52:06.606Z,7.55
2017-04-08T08:53:06.005Z,11.17
2017-04-08T08:54:05.357Z,8.27
2017-04-08T08:55:04.727Z,13.90
2017-04-08T08:56:04.083Z,11.78
2017-04-08T08:57:03.455Z,10.75
2017-04-08T08:58:02.875Z,9.67
2017-04-08T08:59:02.337Z,11.43
2017-04-08T09:00:01.781Z,12.02
2017-04-08T09:01:01.213Z,10.23
2017-04-08T09:02:01.393Z,11.23
2017-04-08T09:03:00.905Z,9.82
2017-04-08T09:04:00.295Z,9.92
2017-04-08T09:04:59.639Z,8.65
2017-04-08T09:05:58.967Z,10.88
2017-04-08T09:06:58.356Z,7.13
2017-04-08T09:07:57.770Z,10.52
2017-04-08T09:08:57.923Z,8.33
2017-04-08T09:09:57.361Z,13.68
2017-04-08T09:10:56.900Z,9.72
2017-04-08T09:11:56.709Z,8.72
2017-04-08T09:12:56.102Z,8.35
2017-04-08T09:13:55.429Z,11.47
2017-04-08T09:14:54.895Z,11.05
2017-04-08T09:15:54.732Z,12.32
2017-04-08T09:16:58.017Z,8.83
2017-04-08T09:17:57.468Z,10.03
2017-04-08T09:18:56.792Z,9.97
2017-04-08T09:19:56.202Z,9.73
2017-04-08T09:20:55.542Z,9.68
2017-04-08T09:21:54.907Z,7.70
2017-04-08T09:22:54.280Z,6.30
2017-04-08T09:23:53.637Z,6.65
2017-04-08T09:24:53.053Z,6.65
2017-04-08T09:25:52.458Z,11.08
2017-04-08T09:26:51.821Z,9.70
2017-04-08T09:27:51.226Z,7.57
2017-04-08T09:28:50.601Z,10.38
2017-04-08T09:29:50.039Z,12.17
2017-04-08T09:30:49.353Z,5.98
2017-04-08T09:31:48.712Z,5.48
2017-04-08T09:32:48.061Z,6.17
2017-04-08T09:33:47.366Z,9.78
2017-04-08T09:34:46.774Z,6.90
2017-04-08T09:35:46.137Z,5.25
2017-04-08T09:36:45.523Z,6.80
2017-04-08T09:37:44.868Z,4.97
2017-04-08T09:38:45.010Z,6.47
2017-04-08T09:39:44.363Z,6.98
2017-04-08T09:40:44.440Z,8.22
2017-04-08T09:41:43.822Z,4.52
2017-04-08T09:42:43.181Z,6.65
2017-04-08T09:43:42.555Z,5.05
2017-04-08T09:44:41.942Z,8.35
2017-04-08T09:45:41.290Z,6.27
2017-04-08T09:46:41.431Z,6.48
2017-04-08T09:47:40.737Z,5.93
2017-04-08T09:48:40.864Z,5.47
2017-04-08T09:49:40.188Z,4.90
2017-04-08T09:50:39.495Z,4.68
2017-04-08T09:51:38.783Z,6.80
2017-04-08T09:52:38.167Z,6.17
2017-04-08T09:53:37.540Z,9.37
2017-04-08T09:54:36.883Z,4.32
2017-04-08T09:55:36.288Z,8.75
2017-04-08T09:56:36.430Z,8.25
2017-04-08T09:57:35.799Z,5.77
2017-04-08T09:58:35.152Z,7.82
2017-04-08T09:59:34.584Z,8.07
2017-04-08T10:00:34.047Z,6.60
2017-04-08T10:01:33.340Z,10.58
2017-04-08T10:02:32.920Z,8.20
2017-04-08T10:03:32.329Z,7.67
2017-04-08T10:04:32.518Z,6.02
2017-04-08T10:05:31.960Z,4.62
2017-04-08T10:06:31.425Z,6.05
2017-04-08T10:07:30.918Z,5.10
2017-04-08T10:08:30.407Z,7.55
2017-04-08T10:09:29.812Z,7.20
2017-04-08T10:10:29.995Z,6.63
2017-04-08T10:11:29.894Z,4.57
2017-04-08T10:12:29.312Z,5.48
2017-04-08T10:13:29.148Z,6.70
2017-04-08T10:14:29.686Z,7.35
2017-04-08T10:15:29.141Z,7.00
2017-04-08T10:16:28.438Z,10.60
2017-04-08T10:17:27.690Z,4.40
2017-04-08T10:18:27.012Z,6.60
2017-04-08T10:19:26.402Z,8.15
2017-04-08T10:20:26.508Z,4.82
2017-04-08T10:21:26.607Z,6.70
2017-04-08T10:22:27.694Z,3.80
2017-04-08T10:23:26.971Z,9.10
2017-04-08T10:24:26.261Z,3.90
2017-04-08T10:25:25.593Z,6.90
2017-04-08T10:26:24.884Z,3.58
2017-04-08T10:27:24.922Z,4.93
2017-04-08T10:28:24.961Z,6.48
2017-04-08T10:29:24.280Z,6.47
2017-04-08T10:30:23.576Z,5.25
2017-04-08T10:31:22.859Z,6.02
2017-04-08T10:32:22.180Z,3.37
2017-04-08T10:33:21.474Z,5.93
2017-04-08T10:34:21.558Z,6.27
2017-04-08T10:35:20.856Z,5.53
2017-04-08T10:36:20.165Z,6.38
2017-04-08T10:37:20.258Z,3.42
2017-04-08T10:38:19.631Z,4.87
2017-04-08T10:39:18.951Z,5.80
2017-04-08T10:40:19.346Z,7.42
2017-04-08T10:41:18.632Z,7.05
2017-04-08T10:42:17.916Z,5.60
2017-04-08T10:43:17.244Z,3.92
2017-04-08T10:44:17.444Z,6.65
2017-04-08T10:45:16.753Z,3.63
2017-04-08T10:46:16.102Z,3.52
2017-04-08T10:47:15.391Z,4.32
2017-04-08T10:48:14.697Z,4.35
2017-04-08T10:49:13.969Z,3.80
2017-04-08T10:50:13.247Z,9.78
2017-04-08T10:51:12.607Z,5.13
2017-04-08T10:52:12.693Z,9.00
2017-04-08T10:53:12.715Z,6.75
2017-04-08T10:54:12.768Z,3.30
2017-04-08T10:55:12.127Z,5.47
2017-04-08T10:56:11.493Z,7.57
2017-04-08T10:57:11.516Z,9.48
2017-04-08T10:58:11.506Z,5.52
2017-04-08T10:59:11.610Z,5.67
2017-04-08T11:00:11.087Z,4.77
2017-04-08T11:01:10.699Z,5.55
2017-04-08T11:02:10.051Z,5.35
2017-04-08T11:03:09.901Z,7.30
2017-04-08T11:04:09.225Z,6.10
2017-04-08T11:05:08.596Z,8.88
2017-04-08T11:06:08.729Z,4.10
2017-04-08T11:07:07.976Z,5.48
2017-04-08T11:08:07.345Z,6.52
2017-04-08T11:09:06.864Z,6.43
2017-04-08T11:10:06.198Z,4.27
2017-04-08T11:11:05.549Z,7.50
2017-04-08T11:12:05.095Z,4.62
2017-04-08T11:13:04.387Z,3.85
2017-04-08T11:14:03.681Z,6.60
2017-04-08T11:15:03.050Z,6.93
2017-04-08T11:16:02.411Z,4.45
2017-04-08T11:17:02.499Z,5.97
2017-04-08T11:18:01.798Z,7.00
2017-04-08T11:19:01.149Z,4.22
2017-04-08T11:20:00.454Z,6.17
2017-04-08T11:21:00.061Z,5.20
2017-04-08T11:21:59.430Z,3.55
2017-04-08T11:22:58.793Z,5.35
2017-04-08T11:23:58.247Z,3.65
2017-04-08T11:24:57.910Z,3.93
2017-04-08T11:25:57.301Z,3.32
2017-04-08T11:26:56.780Z,2.83
2017-04-08T11:27:56.192Z,5.77
2017-04-08T11:28:55.761Z,2.75
2017-04-08T11:29:55.040Z,3.03
2017-04-08T11:30:54.414Z,4.40
2017-04-08T11:31:53.837Z,4.47
2017-04-08T11:32:53.202Z,3.63
2017-04-08T11:33:52.599Z,5.02
2017-04-08T11:34:51.932Z,4.65
2017-04-08T11:35:51.554Z,2.75
2017-04-08T11:36:50.978Z,7.45
2017-04-08T11:37:51.045Z,6.53
2017-04-08T11:38:50.434Z,3.00
2017-04-08T11:39:49.784Z,4.50
2017-04-08T11:40:49.854Z,3.20
2017-04-08T11:41:49.180Z,5.45
2017-04-08T11:42:49.235Z,4.03
2017-04-08T11:43:48.517Z,8.03
2017-04-08T11:44:47.767Z,4.72
2017-04-08T11:45:47.801Z,3.70
2017-04-08T11:46:47.108Z,6.95
2017-04-08T11:47:46.422Z,4.45
2017-04-08T11:48:45.680Z,3.55
2017-04-08T11:49:45.014Z,3.80
2017-04-08T11:50:44.324Z,5.10
2017-04-08T11:51:44.340Z,2.55
2017-04-08T11:52:44.377Z,4.43
2017-04-08T11:53:43.666Z,6.78
2017-04-08T11:54:42.960Z,6.68
2017-04-08T11:55:42.293Z,8.97
2017-04-08T11:56:41.584Z,3.55
2017-04-08T11:57:40.864Z,3.72
2017-04-08T11:58:40.143Z,4.23
2017-04-08T11:59:39.409Z,5.32
2017-04-08T12:00:38.704Z,7.13
2017-04-08T12:01:38.318Z,5.38
2017-04-08T12:02:37.594Z,5.75
2017-04-08T12:03:36.981Z,4.20
2017-04-08T12:04:36.318Z,7.28
2017-04-08T12:05:35.867Z,4.55
2017-04-08T12:06:35.143Z,6.33
2017-04-08T12:07:34.458Z,3.68
2017-04-08T12:08:33.730Z,3.25
2017-04-08T12:09:33.018Z,5.83
2017-04-08T12:10:32.349Z,3.75
2017-04-08T12:11:31.597Z,5.57
2017-04-08T12:12:30.970Z,4.05
2017-04-08T12:13:31.012Z,3.77
2017-04-08T12:14:30.349Z,4.18
2017-04-08T12:15:29.662Z,4.10
2017-04-08T12:16:28.951Z,4.32
2017-04-08T12:17:29.282Z,5.87
2017-04-08T12:18:28.529Z,5.15
2017-04-08T12:19:28.622Z,3.90
2017-04-08T12:20:28.013Z,5.67
2017-04-08T12:21:27.356Z,3.75
2017-04-08T12:22:27.201Z,3.15
2017-04-08T12:23:26.436Z,6.13
2017-04-08T12:24:25.800Z,4.70
2017-04-08T12:25:25.106Z,2.90
2017-04-08T12:26:25.122Z,5.90
2017-04-08T12:27:25.172Z,3.30
2017-04-08T12:28:24.468Z,4.22
2017-04-08T12:29:23.784Z,5.25
2017-04-08T12:30:23.044Z,6.90
2017-04-08T12:31:22.314Z,7.83
2017-04-08T12:32:21.592Z,4.42
2017-04-08T12:33:21.424Z,6.23
2017-04-08T12:34:21.490Z,3.63
2017-04-08T12:35:21.505Z,4.07
2017-04-08T12:36:20.788Z,6.15
2017-04-08T12:37:20.534Z,4.93
2017-04-08T12:38:19.818Z,5.65
2017-04-08T12:39:19.104Z,3.68
2017-04-08T12:40:18.424Z,6.88
2017-04-08T12:41:17.715Z,4.52
2017-04-08T12:42:17.503Z,2.72
2017-04-08T12:43:16.856Z,3.37
2017-04-08T12:44:16.162Z,7.00
2017-04-08T12:45:15.512Z,2.98
2017-04-08T12:46:15.652Z,3.50
2017-04-08T12:47:14.923Z,5.57
2017-04-08T12:48:14.283Z,4.18
2017-04-08T12:49:13.553Z,3.25
2017-04-08T12:50:12.866Z,6.33
2017-04-08T12:51:12.206Z,5.02
2017-04-08T12:52:11.647Z,3.87
2017-04-08T12:53:11.003Z,2.27
2017-04-08T12:54:10.354Z,5.15
2017-04-08T12:55:09.760Z,3.37
2017-04-08T12:56:09.070Z,4.28
2017-04-08T12:57:08.346Z,3.30